sensor_id;sensor_type;location;lat;lon;timestamp;pressure;altitude;pressure_sealevel;temperature;humidity
64192;BME280;50497;50.720;-2.084;2023-02-19T00:00:25;100853.72;;;9.86;100.00
64192;BME280;50497;50.720;-2.084;2023-02-19T00:03:01;100863.50;;;9.87;100.00
64192;BME280;50497;50.720;-2.084;2023-02-19T00:05:28;100873.44;;;9.83;100.00
64192;BME280;50497;50.720;-2.084;2023-02-19T00:08:01;100865.38;;;9.85;100.00
64192;BME280;50497;50.720;-2.084;2023-02-19T00:10:33;100874.19;;;9.87;100.00
64192;BME280;50497;50.720;-2.084;2023-02-19T00:13:01;100868.84;;;9.87;100.00
64192;BME280;50497;50.720;-2.084;2023-02-19T00:15:27;100874.25;;;9.85;100.00
64192;BME280;50497;50.720;-2.084;2023-02-19T00:18:03;100878.78;;;9.83;100.00
64192;BME280;50497;50.720;-2.084;2023-02-19T00:20:29;100898.41;;;9.82;100.00
64192;BME280;50497;50.720;-2.084;2023-02-19T00:23:01;100905.56;;;9.82;100.00
64192;BME280;50497;50.720;-2.084;2023-02-19T00:25:35;100910.31;;;9.75;100.00
64192;BME280;50497;50.720;-2.084;2023-02-19T00:28:06;100939.97;;;9.89;100.00
64192;BME280;50497;50.720;-2.084;2023-02-19T00:30:32;100939.00;;;9.92;100.00
64192;BME280;50497;50.720;-2.084;2023-02-19T00:33:00;100935.34;;;9.94;100.00
64192;BME280;50497;50.720;-2.084;2023-02-19T00:35:33;100945.25;;;9.91;100.00
64192;BME280;50497;50.720;-2.084;2023-02-19T00:38:04;100953.09;;;9.95;100.00
64192;BME280;50497;50.720;-2.084;2023-02-19T00:40:33;100959.31;;;9.96;100.00
64192;BME280;50497;50.720;-2.084;2023-02-19T00:43:02;100965.53;;;9.96;100.00
64192;BME280;50497;50.720;-2.084;2023-02-19T00:45:32;100968.03;;;10.01;100.00
64192;BME280;50497;50.720;-2.084;2023-02-19T00:48:06;100987.72;;;9.98;100.00
64192;BME280;50497;50.720;-2.084;2023-02-19T00:50:41;100977.09;;;9.97;100.00
64192;BME280;50497;50.720;-2.084;2023-02-19T00:53:11;100961.94;;;9.75;100.00
64192;BME280;50497;50.720;-2.084;2023-02-19T00:55:47;100998.44;;;9.76;100.00
64192;BME280;50497;50.720;-2.084;2023-02-19T00:58:16;101003.09;;;9.71;100.00
64192;BME280;50497;50.720;-2.084;2023-02-19T01:00:49;100994.50;;;9.63;100.00
64192;BME280;50497;50.720;-2.084;2023-02-19T01:03:18;101005.53;;;9.54;100.00
64192;BME280;50497;50.720;-2.084;2023-02-19T01:05:50;100998.69;;;9.47;100.00
64192;BME280;50497;50.720;-2.084;2023-02-19T01:08:20;101004.63;;;9.55;100.00
64192;BME280;50497;50.720;-2.084;2023-02-19T01:10:48;101009.13;;;9.53;100.00
64192;BME280;50497;50.720;-2.084;2023-02-19T01:13:26;101021.66;;;9.51;100.00
64192;BME280;50497;50.720;-2.084;2023-02-19T01:16:17;101021.78;;;9.48;100.00
64192;BME280;50497;50.720;-2.084;2023-02-19T01:18:43;101027.50;;;9.38;100.00
64192;BME280;50497;50.720;-2.084;2023-02-19T01:21:20;101020.94;;;9.23;100.00
64192;BME280;50497;50.720;-2.084;2023-02-19T01:23:49;101042.22;;;9.25;100.00
64192;BME280;50497;50.720;-2.084;2023-02-19T01:26:23;101045.81;;;9.24;100.00
64192;BME280;50497;50.720;-2.084;2023-02-19T01:28:54;101052.16;;;9.21;100.00
64192;BME280;50497;50.720;-2.084;2023-02-19T01:31:26;101054.88;;;9.20;100.00
64192;BME280;50497;50.720;-2.084;2023-02-19T01:33:57;101044.31;;;9.17;100.00
64192;BME280;50497;50.720;-2.084;2023-02-19T01:36:32;101040.69;;;9.18;100.00
64192;BME280;50497;50.720;-2.084;2023-02-19T01:39:06;101045.19;;;9.17;100.00
64192;BME280;50497;50.720;-2.084;2023-02-19T01:41:36;101060.28;;;9.18;100.00
64192;BME280;50497;50.720;-2.084;2023-02-19T01:47:20;101052.06;;;9.23;100.00
64192;BME280;50497;50.720;-2.084;2023-02-19T01:50:00;101059.16;;;9.24;100.00
64192;BME280;50497;50.720;-2.084;2023-02-19T01:55:47;101055.81;;;9.19;100.00
64192;BME280;50497;50.720;-2.084;2023-02-19T01:58:15;101044.63;;;9.07;100.00
64192;BME280;50497;50.720;-2.084;2023-02-19T02:00:45;101065.88;;;9.11;100.00
64192;BME280;50497;50.720;-2.084;2023-02-19T02:03:11;101073.94;;;9.09;100.00
64192;BME280;50497;50.720;-2.084;2023-02-19T02:08:25;101063.47;;;9.03;100.00
64192;BME280;50497;50.720;-2.084;2023-02-19T02:11:14;101064.78;;;8.91;100.00
64192;BME280;50497;50.720;-2.084;2023-02-19T02:13:46;101079.22;;;8.85;100.00
64192;BME280;50497;50.720;-2.084;2023-02-19T02:16:32;101069.63;;;8.80;100.00
64192;BME280;50497;50.720;-2.084;2023-02-19T02:24:17;101092.22;;;8.69;100.00
64192;BME280;50497;50.720;-2.084;2023-02-19T02:32:56;101085.44;;;8.59;100.00
64192;BME280;50497;50.720;-2.084;2023-02-19T02:35:44;101092.69;;;8.56;100.00
64192;BME280;50497;50.720;-2.084;2023-02-19T02:38:23;101094.69;;;8.49;100.00
64192;BME280;50497;50.720;-2.084;2023-02-19T02:40:54;101099.25;;;8.45;100.00
64192;BME280;50497;50.720;-2.084;2023-02-19T02:43:22;101102.84;;;8.44;100.00
64192;BME280;50497;50.720;-2.084;2023-02-19T02:45:51;101096.97;;;8.31;100.00
64192;BME280;50497;50.720;-2.084;2023-02-19T02:48:33;101090.06;;;8.26;100.00
64192;BME280;50497;50.720;-2.084;2023-02-19T02:53:50;101069.34;;;8.07;100.00
64192;BME280;50497;50.720;-2.084;2023-02-19T02:56:36;101087.22;;;8.04;100.00
64192;BME280;50497;50.720;-2.084;2023-02-19T02:59:11;101072.59;;;7.89;100.00
64192;BME280;50497;50.720;-2.084;2023-02-19T03:01:48;101098.16;;;7.94;100.00
64192;BME280;50497;50.720;-2.084;2023-02-19T03:10:30;101093.31;;;7.79;100.00
64192;BME280;50497;50.720;-2.084;2023-02-19T03:13:01;101099.63;;;7.75;100.00
64192;BME280;50497;50.720;-2.084;2023-02-19T03:15:55;101095.41;;;7.68;100.00
64192;BME280;50497;50.720;-2.084;2023-02-19T03:18:50;101111.38;;;7.68;100.00
64192;BME280;50497;50.720;-2.084;2023-02-19T03:21:41;101124.06;;;7.59;100.00
64192;BME280;50497;50.720;-2.084;2023-02-19T03:24:10;101126.16;;;7.48;100.00
64192;BME280;50497;50.720;-2.084;2023-02-19T03:27:01;101132.25;;;7.52;100.00
64192;BME280;50497;50.720;-2.084;2023-02-19T03:29:34;101130.41;;;7.55;100.00
64192;BME280;50497;50.720;-2.084;2023-02-19T03:32:22;101126.06;;;7.51;100.00
64192;BME280;50497;50.720;-2.084;2023-02-19T03:35:00;101123.34;;;7.53;100.00
64192;BME280;50497;50.720;-2.084;2023-02-19T03:37:32;101126.09;;;7.50;100.00
64192;BME280;50497;50.720;-2.084;2023-02-19T03:40:07;101127.06;;;7.47;100.00
64192;BME280;50497;50.720;-2.084;2023-02-19T03:48:35;101132.69;;;7.36;100.00
64192;BME280;50497;50.720;-2.084;2023-02-19T03:51:13;101136.31;;;7.34;100.00
64192;BME280;50497;50.720;-2.084;2023-02-19T03:53:51;101150.50;;;7.34;100.00
64192;BME280;50497;50.720;-2.084;2023-02-19T03:56:36;101139.81;;;7.36;100.00
64192;BME280;50497;50.720;-2.084;2023-02-19T03:59:30;101154.06;;;7.33;100.00
64192;BME280;50497;50.720;-2.084;2023-02-19T04:02:02;101147.88;;;7.33;100.00
64192;BME280;50497;50.720;-2.084;2023-02-19T04:04:33;101144.19;;;7.37;100.00
64192;BME280;50497;50.720;-2.084;2023-02-19T04:07:08;101142.47;;;7.36;100.00
64192;BME280;50497;50.720;-2.084;2023-02-19T04:09:44;101136.25;;;7.35;100.00
64192;BME280;50497;50.720;-2.084;2023-02-19T04:12:15;101137.22;;;7.33;100.00
64192;BME280;50497;50.720;-2.084;2023-02-19T04:15:21;101146.03;;;7.35;100.00
64192;BME280;50497;50.720;-2.084;2023-02-19T04:17:48;101153.13;;;7.36;100.00
64192;BME280;50497;50.720;-2.084;2023-02-19T04:20:22;101153.13;;;7.36;100.00
64192;BME280;50497;50.720;-2.084;2023-02-19T04:22:52;101155.81;;;7.34;100.00
64192;BME280;50497;50.720;-2.084;2023-02-19T04:25:25;101155.84;;;7.33;100.00
64192;BME280;50497;50.720;-2.084;2023-02-19T04:27:58;101161.94;;;7.38;100.00
64192;BME280;50497;50.720;-2.084;2023-02-19T04:30:28;101163.69;;;7.39;100.00
64192;BME280;50497;50.720;-2.084;2023-02-19T04:32:57;101173.63;;;7.32;100.00
64192;BME280;50497;50.720;-2.084;2023-02-19T04:35:27;101185.06;;;7.36;100.00
64192;BME280;50497;50.720;-2.084;2023-02-19T04:37:53;101185.13;;;7.33;100.00
64192;BME280;50497;50.720;-2.084;2023-02-19T04:40:25;101177.31;;;7.27;100.00
64192;BME280;50497;50.720;-2.084;2023-02-19T04:42:50;101175.53;;;7.27;100.00
64192;BME280;50497;50.720;-2.084;2023-02-19T04:45:24;101185.47;;;7.20;100.00
64192;BME280;50497;50.720;-2.084;2023-02-19T04:47:49;101182.00;;;7.17;100.00
64192;BME280;50497;50.720;-2.084;2023-02-19T04:50:18;101186.50;;;7.15;100.00
64192;BME280;50497;50.720;-2.084;2023-02-19T04:52:44;101191.09;;;7.08;100.00
64192;BME280;50497;50.720;-2.084;2023-02-19T04:55:10;101192.88;;;7.09;100.00
64192;BME280;50497;50.720;-2.084;2023-02-19T04:57:38;101185.78;;;7.08;100.00
64192;BME280;50497;50.720;-2.084;2023-02-19T05:00:07;101183.22;;;7.03;100.00
64192;BME280;50497;50.720;-2.084;2023-02-19T05:02:36;101193.09;;;7.00;100.00
64192;BME280;50497;50.720;-2.084;2023-02-19T05:05:04;101202.91;;;6.98;100.00
64192;BME280;50497;50.720;-2.084;2023-02-19T05:07:36;101221.59;;;6.95;100.00
64192;BME280;50497;50.720;-2.084;2023-02-19T05:10:06;101227.94;;;6.89;100.00
64192;BME280;50497;50.720;-2.084;2023-02-19T05:12:35;101236.81;;;6.88;100.00
64192;BME280;50497;50.720;-2.084;2023-02-19T05:15:05;101236.06;;;6.83;100.00
64192;BME280;50497;50.720;-2.084;2023-02-19T05:17:40;101231.63;;;6.83;100.00
64192;BME280;50497;50.720;-2.084;2023-02-19T05:20:10;101219.22;;;6.84;100.00
64192;BME280;50497;50.720;-2.084;2023-02-19T05:22:44;101214.81;;;6.81;100.00
64192;BME280;50497;50.720;-2.084;2023-02-19T05:25:10;101231.44;;;6.91;100.00
64192;BME280;50497;50.720;-2.084;2023-02-19T05:27:39;101237.63;;;6.92;100.00
64192;BME280;50497;50.720;-2.084;2023-02-19T05:30:09;101234.19;;;6.87;100.00
64192;BME280;50497;50.720;-2.084;2023-02-19T05:32:36;101236.03;;;6.84;100.00
64192;BME280;50497;50.720;-2.084;2023-02-19T05:35:08;101240.69;;;6.75;100.00
64192;BME280;50497;50.720;-2.084;2023-02-19T05:37:40;101233.75;;;6.69;100.00
64192;BME280;50497;50.720;-2.084;2023-02-19T05:40:10;101241.88;;;6.61;100.00
64192;BME280;50497;50.720;-2.084;2023-02-19T05:42:40;101244.78;;;6.51;100.00
64192;BME280;50497;50.720;-2.084;2023-02-19T05:45:12;101267.22;;;6.37;100.00
64192;BME280;50497;50.720;-2.084;2023-02-19T05:47:44;101264.88;;;6.23;100.00
64192;BME280;50497;50.720;-2.084;2023-02-19T05:50:14;101274.09;;;6.04;100.00
64192;BME280;50497;50.720;-2.084;2023-02-19T05:52:39;101258.50;;;5.85;100.00
64192;BME280;50497;50.720;-2.084;2023-02-19T05:55:10;101271.06;;;5.77;100.00
64192;BME280;50497;50.720;-2.084;2023-02-19T05:57:45;101280.06;;;5.70;100.00
64192;BME280;50497;50.720;-2.084;2023-02-19T06:00:13;101284.66;;;5.60;100.00
64192;BME280;50497;50.720;-2.084;2023-02-19T06:02:43;101290.19;;;5.48;100.00
64192;BME280;50497;50.720;-2.084;2023-02-19T06:05:09;101281.34;;;5.46;100.00
64192;BME280;50497;50.720;-2.084;2023-02-19T06:07:37;101284.09;;;5.41;100.00
64192;BME280;50497;50.720;-2.084;2023-02-19T06:10:13;101295.75;;;5.32;100.00
64192;BME280;50497;50.720;-2.084;2023-02-19T06:12:39;101302.22;;;5.14;100.00
64192;BME280;50497;50.720;-2.084;2023-02-19T06:15:12;101317.25;;;5.14;100.00
64192;BME280;50497;50.720;-2.084;2023-02-19T06:17:41;101308.53;;;5.07;100.00
64192;BME280;50497;50.720;-2.084;2023-02-19T06:20:10;101273.28;;;5.00;100.00
64192;BME280;50497;50.720;-2.084;2023-02-19T06:22:36;101288.28;;;5.03;100.00
64192;BME280;50497;50.720;-2.084;2023-02-19T06:25:06;101291.84;;;5.00;100.00
64192;BME280;50497;50.720;-2.084;2023-02-19T06:27:38;101295.31;;;5.04;100.00
64192;BME280;50497;50.720;-2.084;2023-02-19T06:30:04;101293.34;;;5.17;100.00
64192;BME280;50497;50.720;-2.084;2023-02-19T06:32:31;101303.19;;;5.09;100.00
64192;BME280;50497;50.720;-2.084;2023-02-19T06:34:57;101299.78;;;5.02;100.00
64192;BME280;50497;50.720;-2.084;2023-02-19T06:37:23;101303.28;;;5.03;100.00
64192;BME280;50497;50.720;-2.084;2023-02-19T06:39:55;101313.06;;;5.00;100.00
64192;BME280;50497;50.720;-2.084;2023-02-19T06:42:24;101321.19;;;4.88;100.00
64192;BME280;50497;50.720;-2.084;2023-02-19T06:44:56;101316.88;;;4.79;100.00
64192;BME280;50497;50.720;-2.084;2023-02-19T06:47:25;101316.91;;;4.78;100.00
64192;BME280;50497;50.720;-2.084;2023-02-19T06:49:54;101304.53;;;4.78;100.00
64192;BME280;50497;50.720;-2.084;2023-02-19T06:52:21;101295.63;;;4.82;100.00
64192;BME280;50497;50.720;-2.084;2023-02-19T06:54:47;101314.16;;;4.84;100.00
64192;BME280;50497;50.720;-2.084;2023-02-19T06:57:14;101311.59;;;4.79;100.00
64192;BME280;50497;50.720;-2.084;2023-02-19T06:59:45;101330.16;;;4.78;100.00
64192;BME280;50497;50.720;-2.084;2023-02-19T07:02:17;101335.59;;;4.70;100.00
64192;BME280;50497;50.720;-2.084;2023-02-19T07:04:46;101328.47;;;4.74;100.00
64192;BME280;50497;50.720;-2.084;2023-02-19T07:07:13;101325.75;;;4.80;100.00
64192;BME280;50497;50.720;-2.084;2023-02-19T07:09:45;101312.41;;;4.83;100.00
64192;BME280;50497;50.720;-2.084;2023-02-19T07:12:13;101315.03;;;4.85;100.00
64192;BME280;50497;50.720;-2.084;2023-02-19T07:14:42;101303.53;;;4.87;100.00
64192;BME280;50497;50.720;-2.084;2023-02-19T07:17:10;101332.38;;;5.09;100.00
64192;BME280;50497;50.720;-2.084;2023-02-19T07:19:39;101338.72;;;4.98;100.00
64192;BME280;50497;50.720;-2.084;2023-02-19T07:22:05;101342.34;;;4.91;100.00
64192;BME280;50497;50.720;-2.084;2023-02-19T07:24:38;101329.97;;;4.93;100.00
64192;BME280;50497;50.720;-2.084;2023-02-19T07:27:07;101327.28;;;4.96;100.00
64192;BME280;50497;50.720;-2.084;2023-02-19T07:29:33;101335.34;;;4.87;100.00
64192;BME280;50497;50.720;-2.084;2023-02-19T07:32:03;101329.97;;;4.92;100.00
64192;BME280;50497;50.720;-2.084;2023-02-19T07:34:33;101327.31;;;4.92;100.00
64192;BME280;50497;50.720;-2.084;2023-02-19T07:37:02;101335.16;;;4.99;100.00
64192;BME280;50497;50.720;-2.084;2023-02-19T07:39:28;101323.69;;;4.97;100.00
64192;BME280;50497;50.720;-2.084;2023-02-19T07:41:58;101344.91;;;4.97;100.00
64192;BME280;50497;50.720;-2.084;2023-02-19T07:44:29;101344.06;;;4.95;100.00
64192;BME280;50497;50.720;-2.084;2023-02-19T07:47:06;101344.03;;;4.98;100.00
64192;BME280;50497;50.720;-2.084;2023-02-19T07:49:31;101344.88;;;5.00;100.00
64192;BME280;50497;50.720;-2.084;2023-02-19T07:52:04;101347.50;;;5.02;100.00
64192;BME280;50497;50.720;-2.084;2023-02-19T07:54:29;101346.63;;;5.03;100.00
64192;BME280;50497;50.720;-2.084;2023-02-19T07:57:01;101341.22;;;5.08;100.00
64192;BME280;50497;50.720;-2.084;2023-02-19T07:59:33;101325.97;;;5.22;100.00
64192;BME280;50497;50.720;-2.084;2023-02-19T08:01:59;101317.66;;;5.44;100.00
64192;BME280;50497;50.720;-2.084;2023-02-19T08:04:43;101300.44;;;5.69;100.00
64192;BME280;50497;50.720;-2.084;2023-02-19T08:07:11;101280.81;;;5.77;100.00
64192;BME280;50497;50.720;-2.084;2023-02-19T08:09:36;101287.47;;;5.99;100.00
64192;BME280;50497;50.720;-2.084;2023-02-19T08:12:02;101274.09;;;6.04;100.00
64192;BME280;50497;50.720;-2.084;2023-02-19T08:14:46;101295.81;;;6.26;100.00
64192;BME280;50497;50.720;-2.084;2023-02-19T08:17:22;101298.94;;;6.46;100.00
64192;BME280;50497;50.720;-2.084;2023-02-19T08:19:50;101277.31;;;6.62;100.00
64192;BME280;50497;50.720;-2.084;2023-02-19T08:22:22;101275.25;;;6.75;100.00
64192;BME280;50497;50.720;-2.084;2023-02-19T08:24:55;101265.19;;;6.89;100.00
64192;BME280;50497;50.720;-2.084;2023-02-19T08:27:25;101259.03;;;6.85;100.00
64192;BME280;50497;50.720;-2.084;2023-02-19T08:29:53;101268.41;;;7.02;100.00
64192;BME280;50497;50.720;-2.084;2023-02-19T08:32:19;101264.81;;;7.05;100.00
64192;BME280;50497;50.720;-2.084;2023-02-19T08:34:47;101258.38;;;7.13;100.00
64192;BME280;50497;50.720;-2.084;2023-02-19T08:37:26;101243.06;;;7.23;100.00
64192;BME280;50497;50.720;-2.084;2023-02-19T08:39:56;101256.31;;;7.25;100.00
64192;BME280;50497;50.720;-2.084;2023-02-19T08:42:24;101262.19;;;7.39;100.00
64192;BME280;50497;50.720;-2.084;2023-02-19T08:44:54;101265.75;;;7.38;100.00
64192;BME280;50497;50.720;-2.084;2023-02-19T08:47:30;101272.66;;;7.45;100.00
64192;BME280;50497;50.720;-2.084;2023-02-19T08:50:06;101290.09;;;7.57;100.00
64192;BME280;50497;50.720;-2.084;2023-02-19T08:52:46;101306.97;;;7.57;100.00
64192;BME280;50497;50.720;-2.084;2023-02-19T08:55:26;101311.13;;;7.68;100.00
64192;BME280;50497;50.720;-2.084;2023-02-19T08:57:56;101284.44;;;7.71;100.00
64192;BME280;50497;50.720;-2.084;2023-02-19T09:00:25;101309.97;;;7.78;100.00
64192;BME280;50497;50.720;-2.084;2023-02-19T09:02:59;101313.50;;;7.78;100.00
64192;BME280;50497;50.720;-2.084;2023-02-19T09:05:41;101338.47;;;8.09;100.00
64192;BME280;50497;50.720;-2.084;2023-02-19T09:08:11;101352.25;;;8.23;100.00
64192;BME280;50497;50.720;-2.084;2023-02-19T09:10:40;101376.84;;;8.35;100.00
64192;BME280;50497;50.720;-2.084;2023-02-19T09:13:15;101385.25;;;8.54;100.00
64192;BME280;50497;50.720;-2.084;2023-02-19T09:15:50;101377.22;;;8.85;100.00
64192;BME280;50497;50.720;-2.084;2023-02-19T09:18:19;101388.38;;;8.98;100.00
64192;BME280;50497;50.720;-2.084;2023-02-19T09:20:59;101407.47;;;9.14;100.00
64192;BME280;50497;50.720;-2.084;2023-02-19T09:23:25;101409.63;;;9.31;100.00
64192;BME280;50497;50.720;-2.084;2023-02-19T09:25:59;101399.31;;;9.75;100.00
64192;BME280;50497;50.720;-2.084;2023-02-19T09:28:37;101373.56;;;10.73;100.00
64192;BME280;50497;50.720;-2.084;2023-02-19T09:31:12;101369.13;;;10.96;100.00
64192;BME280;50497;50.720;-2.084;2023-02-19T09:33:57;101363.69;;;12.47;100.00
64192;BME280;50497;50.720;-2.084;2023-02-19T09:36:29;101341.59;;;12.99;100.00
64192;BME280;50497;50.720;-2.084;2023-02-19T09:39:02;102282.63;;;13.01;100.00
64192;BME280;50497;50.720;-2.084;2023-02-19T09:41:42;102401.75;;;13.02;100.00
64192;BME280;50497;50.720;-2.084;2023-02-19T09:44:35;102457.38;;;12.68;100.00
64192;BME280;50497;50.720;-2.084;2023-02-19T09:47:30;102470.09;;;12.29;100.00
64192;BME280;50497;50.720;-2.084;2023-02-19T09:50:08;102472.78;;;12.29;100.00
64192;BME280;50497;50.720;-2.084;2023-02-19T09:52:50;102443.59;;;12.16;100.00
64192;BME280;50497;50.720;-2.084;2023-02-19T09:55:32;102449.50;;;12.29;100.00
64192;BME280;50497;50.720;-2.084;2023-02-19T09:58:05;102428.63;;;13.02;100.00
64192;BME280;50497;50.720;-2.084;2023-02-19T10:00:47;102472.63;;;13.27;100.00
64192;BME280;50497;50.720;-2.084;2023-02-19T10:03:29;102509.84;;;13.11;100.00
64192;BME280;50497;50.720;-2.084;2023-02-19T10:06:15;102521.88;;;13.28;100.00
64192;BME280;50497;50.720;-2.084;2023-02-19T10:08:44;102543.00;;;13.42;100.00
64192;BME280;50497;50.720;-2.084;2023-02-19T10:11:17;102574.19;;;13.77;100.00
64192;BME280;50497;50.720;-2.084;2023-02-19T10:13:50;102679.22;;;13.73;100.00
64192;BME280;50497;50.720;-2.084;2023-02-19T10:16:25;102699.97;;;13.99;100.00
64192;BME280;50497;50.720;-2.084;2023-02-19T10:18:52;102693.00;;;14.78;100.00
64192;BME280;50497;50.720;-2.084;2023-02-19T10:21:24;102716.38;;;15.04;100.00
64192;BME280;50497;50.720;-2.084;2023-02-19T10:24:00;102750.41;;;14.80;100.00
64192;BME280;50497;50.720;-2.084;2023-02-19T10:26:31;102743.38;;;15.03;100.00
64192;BME280;50497;50.720;-2.084;2023-02-19T10:29:04;102758.53;;;14.20;100.00
64192;BME280;50497;50.720;-2.084;2023-02-19T10:31:38;102734.47;;;14.44;100.00
64192;BME280;50497;50.720;-2.084;2023-02-19T10:34:15;102745.16;;;15.02;100.00
64192;BME280;50497;50.720;-2.084;2023-02-19T10:36:42;102738.75;;;14.80;100.00
64192;BME280;50497;50.720;-2.084;2023-02-19T10:41:49;102748.06;;;14.41;100.00
64192;BME280;50497;50.720;-2.084;2023-02-19T10:44:26;102715.66;;;15.24;100.00
64192;BME280;50497;50.720;-2.084;2023-02-19T10:46:58;102724.41;;;15.56;100.00
64192;BME280;50497;50.720;-2.084;2023-02-19T10:49:37;102704.03;;;16.42;100.00
64192;BME280;50497;50.720;-2.084;2023-02-19T10:52:29;102769.47;;;16.94;100.00
64192;BME280;50497;50.720;-2.084;2023-02-19T10:55:15;102923.47;;;17.64;100.00
64192;BME280;50497;50.720;-2.084;2023-02-19T10:57:43;102932.03;;;17.53;100.00
64192;BME280;50497;50.720;-2.084;2023-02-19T11:00:20;102943.66;;;17.77;100.00
64192;BME280;50497;50.720;-2.084;2023-02-19T11:03:16;102950.94;;;18.18;100.00
64192;BME280;50497;50.720;-2.084;2023-02-19T11:06:02;102949.25;;;17.30;100.00
64192;BME280;50497;50.720;-2.084;2023-02-19T11:11:33;102943.22;;;17.66;100.00
64192;BME280;50497;50.720;-2.084;2023-02-19T11:14:16;102941.94;;;18.38;100.00
64192;BME280;50497;50.720;-2.084;2023-02-19T11:16:48;102928.16;;;19.20;100.00
64192;BME280;50497;50.720;-2.084;2023-02-19T11:19:44;102939.72;;;19.79;100.00
64192;BME280;50497;50.720;-2.084;2023-02-19T11:22:34;102946.50;;;20.23;100.00
64192;BME280;50497;50.720;-2.084;2023-02-19T11:25:22;102949.94;;;19.18;100.00
64192;BME280;50497;50.720;-2.084;2023-02-19T11:28:04;102969.56;;;20.31;100.00
64192;BME280;50497;50.720;-2.084;2023-02-19T11:30:38;102977.13;;;20.77;100.00
64192;BME280;50497;50.720;-2.084;2023-02-19T11:33:21;102962.84;;;21.37;100.00
64192;BME280;50497;50.720;-2.084;2023-02-19T11:38:45;102964.94;;;20.84;100.00
64192;BME280;50497;50.720;-2.084;2023-02-19T11:44:04;102951.44;;;20.99;100.00
64192;BME280;50497;50.720;-2.084;2023-02-19T11:55:24;102920.91;;;21.72;98.83
64192;BME280;50497;50.720;-2.084;2023-02-19T12:00:59;102921.19;;;21.51;91.74
64192;BME280;50497;50.720;-2.084;2023-02-19T12:03:48;102936.50;;;21.06;96.28
64192;BME280;50497;50.720;-2.084;2023-02-19T12:06:36;102955.31;;;21.11;99.59
64192;BME280;50497;50.720;-2.084;2023-02-19T12:28:34;102924.09;;;22.09;95.37
64192;BME280;50497;50.720;-2.084;2023-02-19T12:31:26;102923.66;;;21.86;96.12
64192;BME280;50497;50.720;-2.084;2023-02-19T12:34:27;102923.59;;;21.26;99.26
64192;BME280;50497;50.720;-2.084;2023-02-19T12:40:13;102908.66;;;21.33;92.79
64192;BME280;50497;50.720;-2.084;2023-02-19T12:45:23;102925.97;;;21.78;97.35
64192;BME280;50497;50.720;-2.084;2023-02-19T12:56:59;102919.91;;;19.94;94.33
64192;BME280;50497;50.720;-2.084;2023-02-19T12:59:53;102916.88;;;19.47;100.00
64192;BME280;50497;50.720;-2.084;2023-02-19T13:10:52;102905.94;;;20.69;100.00
64192;BME280;50497;50.720;-2.084;2023-02-19T13:13:28;102899.56;;;20.53;95.03
64192;BME280;50497;50.720;-2.084;2023-02-19T13:16:10;102903.06;;;20.72;100.00
64192;BME280;50497;50.720;-2.084;2023-02-19T13:18:49;102891.34;;;21.50;100.00
64192;BME280;50497;50.720;-2.084;2023-02-19T13:21:23;102874.09;;;20.87;89.66
64192;BME280;50497;50.720;-2.084;2023-02-19T13:24:12;102887.38;;;21.39;100.00
64192;BME280;50497;50.720;-2.084;2023-02-19T13:29:50;102876.59;;;21.99;100.00
64192;BME280;50497;50.720;-2.084;2023-02-19T13:37:35;102857.69;;;22.67;86.57
64192;BME280;50497;50.720;-2.084;2023-02-19T13:42:51;102850.72;;;22.49;83.62
64192;BME280;50497;50.720;-2.084;2023-02-19T13:45:31;102841.19;;;22.56;95.79
64192;BME280;50497;50.720;-2.084;2023-02-19T13:48:13;102847.91;;;23.47;96.60
64192;BME280;50497;50.720;-2.084;2023-02-19T13:50:40;102841.50;;;21.64;79.99
64192;BME280;50497;50.720;-2.084;2023-02-19T13:58:58;102831.91;;;21.87;77.03
64192;BME280;50497;50.720;-2.084;2023-02-19T14:04:23;102829.91;;;20.50;93.01
64192;BME280;50497;50.720;-2.084;2023-02-19T14:14:50;102810.50;;;22.38;100.00
64192;BME280;50497;50.720;-2.084;2023-02-19T14:30:51;102798.41;;;17.97;100.00
64192;BME280;50497;50.720;-2.084;2023-02-19T14:33:29;102798.69;;;17.70;100.00
64192;BME280;50497;50.720;-2.084;2023-02-19T14:36:08;102806.81;;;16.85;100.00
64192;BME280;50497;50.720;-2.084;2023-02-19T14:38:52;102779.03;;;18.44;100.00
64192;BME280;50497;50.720;-2.084;2023-02-19T14:41:19;102788.78;;;17.89;100.00
64192;BME280;50497;50.720;-2.084;2023-02-19T14:43:53;102804.72;;;17.77;100.00
64192;BME280;50497;50.720;-2.084;2023-02-19T14:46:36;102798.88;;;17.65;100.00
64192;BME280;50497;50.720;-2.084;2023-02-19T14:49:13;102802.59;;;17.63;100.00
64192;BME280;50497;50.720;-2.084;2023-02-19T14:51:43;102801.66;;;17.43;100.00
64192;BME280;50497;50.720;-2.084;2023-02-19T14:54:19;102800.38;;;16.65;100.00
64192;BME280;50497;50.720;-2.084;2023-02-19T14:56:47;102796.94;;;16.84;100.00
64192;BME280;50497;50.720;-2.084;2023-02-19T14:59:27;102796.75;;;15.45;100.00
64192;BME280;50497;50.720;-2.084;2023-02-19T15:04:29;102783.06;;;15.76;100.00
64192;BME280;50497;50.720;-2.084;2023-02-19T15:07:00;102774.50;;;15.63;100.00
64192;BME280;50497;50.720;-2.084;2023-02-19T15:09:41;102774.00;;;15.00;100.00
64192;BME280;50497;50.720;-2.084;2023-02-19T15:12:15;102752.38;;;15.02;100.00
64192;BME280;50497;50.720;-2.084;2023-02-19T15:14:45;102753.38;;;15.26;100.00
64192;BME280;50497;50.720;-2.084;2023-02-19T15:17:36;102748.28;;;14.63;100.00
64192;BME280;50497;50.720;-2.084;2023-02-19T15:20:09;102752.84;;;14.31;100.00
64192;BME280;50497;50.720;-2.084;2023-02-19T15:22:38;102741.38;;;14.25;100.00
64192;BME280;50497;50.720;-2.084;2023-02-19T15:25:06;102737.16;;;13.84;100.00
64192;BME280;50497;50.720;-2.084;2023-02-19T15:27:42;102723.59;;;14.19;100.00
64192;BME280;50497;50.720;-2.084;2023-02-19T15:30:27;102717.78;;;14.04;100.00
64192;BME280;50497;50.720;-2.084;2023-02-19T15:33:01;102730.63;;;13.63;100.00
64192;BME280;50497;50.720;-2.084;2023-02-19T15:35:34;102696.94;;;14.11;100.00